createdAt,value
2023-05-09T00:04:56.828Z,27.05
2023-05-09T00:09:59.344Z,21.98
2023-05-09T00:15:01.471Z,25.30
2023-05-09T00:20:05.337Z,26.60
2023-05-09T00:25:08.648Z,22.02
2023-05-09T00:30:10.988Z,22.10
2023-05-09T00:35:13.318Z,22.92
2023-05-09T00:40:15.709Z,21.23
2023-05-09T00:45:17.995Z,22.63
2023-05-09T00:50:20.865Z,22.88
2023-05-09T00:55:23.512Z,22.67
2023-05-09T01:00:25.865Z,22.75
2023-05-09T01:05:38.217Z,21.27
2023-05-09T01:11:21.500Z,23.13
2023-05-09T01:16:29.057Z,20.58
2023-05-09T01:21:32.366Z,23.60
2023-05-09T01:26:56.380Z,24.70
2023-05-09T01:32:01.803Z,23.35
2023-05-09T01:37:07.100Z,22.85
2023-05-09T01:42:11.800Z,22.30
2023-05-09T01:47:16.483Z,24.10
2023-05-09T01:52:20.124Z,20.23
2023-05-09T01:57:25.825Z,20.15
2023-05-09T02:02:28.786Z,22.33
2023-05-09T02:07:32.795Z,22.80
2023-05-09T02:12:34.927Z,24.98
2023-05-09T02:17:37.241Z,24.13
2023-05-09T02:22:40.912Z,23.73
2023-05-09T02:27:47.235Z,22.90
2023-05-09T02:32:52.290Z,25.05
2023-05-09T02:37:55.856Z,24.35
2023-05-09T02:42:57.926Z,24.33
2023-05-09T02:48:00.268Z,22.90
2023-05-09T02:53:02.502Z,22.63
2023-05-09T02:58:13.608Z,27.25
2023-05-09T03:03:19.114Z,25.45
2023-05-09T03:08:21.576Z,22.15
2023-05-09T03:13:26.727Z,21.67
2023-05-09T03:18:28.909Z,22.45
2023-05-09T03:23:31.239Z,22.42
2023-05-09T03:28:33.364Z,20.92
2023-05-09T03:33:39.774Z,20.10
2023-05-09T03:38:44.498Z,21.98
2023-05-09T03:43:47.140Z,21.55
2023-05-09T03:48:49.436Z,21.27
2023-05-09T03:53:52.667Z,22.25
2023-05-09T03:58:57.309Z,23.08
2023-05-09T04:04:01.391Z,21.23
2023-05-09T04:09:07.100Z,23.58
2023-05-09T04:14:09.898Z,25.17
2023-05-09T04:19:12.509Z,22.70
2023-05-09T04:24:14.696Z,22.83
2023-05-09T04:29:19.312Z,24.23
2023-05-09T04:34:27.126Z,21.20
2023-05-09T04:39:31.169Z,20.98
2023-05-09T04:44:40.763Z,20.30
2023-05-09T04:49:43.099Z,19.13
2023-05-09T04:54:45.634Z,20.95
2023-05-09T04:59:49.988Z,22.13
2023-05-09T05:04:56.045Z,19.58
2023-05-09T05:10:03.099Z,16.88
2023-05-09T05:15:06.062Z,16.98
2023-05-09T05:20:10.554Z,19.05
2023-05-09T05:25:17.756Z,21.20
2023-05-09T05:30:23.459Z,16.65
2023-05-09T05:35:28.198Z,15.95
2023-05-09T05:40:31.096Z,18.30
2023-05-09T05:45:38.002Z,17.75
2023-05-09T05:50:43.144Z,17.40
2023-05-09T05:55:50.305Z,16.45
2023-05-09T06:00:53.434Z,17.40
2023-05-09T06:05:56.526Z,16.77
2023-05-09T06:11:00.809Z,21.05
2023-05-09T06:16:14.983Z,15.45
2023-05-09T06:21:23.530Z,17.27
2023-05-09T06:26:26.265Z,15.07
2023-05-09T06:31:28.490Z,16.20
2023-05-09T06:36:32.233Z,18.02
2023-05-09T06:41:34.342Z,20.55
2023-05-09T06:46:36.524Z,19.83
2023-05-09T06:51:38.855Z,18.75
2023-05-09T06:56:41.321Z,20.02
2023-05-09T07:01:43.441Z,17.27
2023-05-09T07:06:46.458Z,18.00
2023-05-09T07:11:48.543Z,18.08
2023-05-09T07:16:50.876Z,19.80
2023-05-09T07:21:53.549Z,20.23
2023-05-09T07:26:55.740Z,19.17
2023-05-09T07:31:58.011Z,17.08
2023-05-09T07:37:00.351Z,19.27
2023-05-09T07:42:02.614Z,17.75
2023-05-09T07:47:05.436Z,17.92
2023-05-09T07:52:07.554Z,16.52
2023-05-09T07:57:09.993Z,17.27
2023-05-09T08:02:12.226Z,15.88
2023-05-09T08:07:14.595Z,16.10
2023-05-09T08:12:16.614Z,13.90
2023-05-09T08:17:18.764Z,16.80
2023-05-09T08:22:20.994Z,14.57
2023-05-09T08:27:26.243Z,14.45
2023-05-09T08:32:28.548Z,10.90
2023-05-09T08:37:30.708Z,10.32
2023-05-09T08:42:33.523Z,12.13
2023-05-09T08:47:37.313Z,11.63
2023-05-09T08:52:39.765Z,11.85
2023-05-09T08:57:41.905Z,12.65
2023-05-09T09:02:44.403Z,12.57
2023-05-09T09:07:47.169Z,12.98
2023-05-09T09:12:50.254Z,15.75
2023-05-09T09:17:56.714Z,14.88
2023-05-09T09:23:03.692Z,12.95
2023-05-09T09:28:06.067Z,15.18
2023-05-09T09:33:08.217Z,13.18
2023-05-09T09:38:10.414Z,15.57
2023-05-09T09:43:12.496Z,12.07
2023-05-09T09:48:14.648Z,10.30
2023-05-09T09:53:20.361Z,12.90
2023-05-09T09:58:25.102Z,11.52
2023-05-09T10:03:35.695Z,11.35
2023-05-09T10:08:37.925Z,11.30
2023-05-09T10:13:40.582Z,12.98
2023-05-09T10:18:43.185Z,12.80
2023-05-09T10:23:48.550Z,10.63
2023-05-09T10:28:54.778Z,9.38
2023-05-09T10:33:57.653Z,10.23
2023-05-09T10:39:00.159Z,16.10
2023-05-09T10:44:03.446Z,11.40
2023-05-09T10:49:06.102Z,10.65
2023-05-09T10:54:25.342Z,9.68
2023-05-09T10:59:46.514Z,10.65
2023-05-09T11:04:48.845Z,9.90
2023-05-09T11:09:52.750Z,9.02
2023-05-09T11:15:05.525Z,10.65
2023-05-09T11:20:08.953Z,8.90
2023-05-09T11:25:13.800Z,9.07
2023-05-09T11:30:18.287Z,10.15
2023-05-09T11:35:22.403Z,9.77
2023-05-09T11:40:24.661Z,10.25
2023-05-09T11:45:31.524Z,8.00
2023-05-09T11:50:33.648Z,8.13
2023-05-09T11:55:38.051Z,7.57
2023-05-09T12:00:46.029Z,9.45
2023-05-09T12:05:48.514Z,7.35
2023-05-09T12:10:50.826Z,7.68
2023-05-09T12:16:00.489Z,9.38
2023-05-09T12:21:03.540Z,6.88
2023-05-09T12:26:06.120Z,7.05
2023-05-09T12:31:08.739Z,8.13
2023-05-09T12:36:12.171Z,6.20
2023-05-09T12:41:35.140Z,7.40
2023-05-09T12:46:40.569Z,8.27
2023-05-09T12:51:49.523Z,8.65
2023-05-09T12:56:53.375Z,8.63
2023-05-09T13:02:01.878Z,7.13
2023-05-09T13:07:10.240Z,7.10
2023-05-09T13:12:12.491Z,8.63
2023-05-09T13:17:14.596Z,6.60
2023-05-09T13:22:17.500Z,9.00
2023-05-09T13:27:20.336Z,6.95
2023-05-09T13:32:22.529Z,7.57
2023-05-09T13:37:24.780Z,8.15
2023-05-09T13:42:27.766Z,6.45
2023-05-09T13:47:29.927Z,6.10
2023-05-09T13:52:32.050Z,7.25
2023-05-09T13:57:34.172Z,8.18
2023-05-09T14:02:36.383Z,7.03
2023-05-09T14:07:38.586Z,6.68
2023-05-09T14:12:40.802Z,6.88
2023-05-09T14:17:43.621Z,7.10
2023-05-09T14:22:46.547Z,7.50
2023-05-09T14:27:48.575Z,5.75
2023-05-09T14:32:50.782Z,7.15
2023-05-09T14:37:53.384Z,7.22
2023-05-09T14:42:55.456Z,7.95
2023-05-09T14:47:57.758Z,5.63
2023-05-09T14:53:01.051Z,8.82
2023-05-09T14:58:03.700Z,6.05
2023-05-09T15:03:05.974Z,6.57
2023-05-09T15:08:08.444Z,6.75
2023-05-09T15:13:11.399Z,6.90
2023-05-09T15:18:15.796Z,5.30
2023-05-09T15:23:18.152Z,6.88
2023-05-09T15:28:20.313Z,6.72
2023-05-09T15:33:22.831Z,5.90
2023-05-09T15:38:25.013Z,7.70
2023-05-09T15:43:27.082Z,9.27
2023-05-09T15:48:29.471Z,9.65
2023-05-09T15:53:31.777Z,6.70
2023-05-09T15:58:34.771Z,6.68
2023-05-09T16:03:37.450Z,7.07
2023-05-09T16:08:39.727Z,7.15
2023-05-09T16:13:42.026Z,6.55
2023-05-09T16:18:44.073Z,5.80
2023-05-09T16:23:47.731Z,6.50
2023-05-09T16:28:49.931Z,7.68
2023-05-09T16:33:53.486Z,7.93
2023-05-09T16:38:55.967Z,8.70
2023-05-09T16:43:58.947Z,12.38
2023-05-09T16:49:01.165Z,8.32
2023-05-09T16:54:03.668Z,11.52
2023-05-09T16:59:05.861Z,8.32
2023-05-09T17:04:08.473Z,10.73
2023-05-09T17:09:10.720Z,9.13
2023-05-09T17:14:12.847Z,9.55
2023-05-09T17:19:16.461Z,8.93
2023-05-09T17:24:18.573Z,9.27
2023-05-09T17:29:20.677Z,10.15
2023-05-09T17:34:24.232Z,10.02
2023-05-09T17:39:26.290Z,11.40
2023-05-09T17:44:28.452Z,10.23
2023-05-09T17:49:30.572Z,12.00
2023-05-09T17:54:32.686Z,12.25
2023-05-09T17:59:34.901Z,13.38
2023-05-09T18:04:36.999Z,13.15
2023-05-09T18:09:39.562Z,12.20
2023-05-09T18:14:41.908Z,13.57
2023-05-09T18:19:44.075Z,13.63
2023-05-09T18:24:46.197Z,11.40
2023-05-09T18:29:48.453Z,12.63
2023-05-09T18:34:50.729Z,13.20
2023-05-09T18:39:53.686Z,9.38
2023-05-09T18:44:55.894Z,9.25
2023-05-09T18:49:59.734Z,8.93
2023-05-09T18:55:05.892Z,11.98
2023-05-09T19:00:08.492Z,8.20
2023-05-09T19:05:10.755Z,8.82
2023-05-09T19:10:13.241Z,7.88
2023-05-09T19:15:15.727Z,8.13
2023-05-09T19:20:18.237Z,9.55
2023-05-09T19:25:21.090Z,8.15
2023-05-09T19:30:27.045Z,7.72
2023-05-09T19:35:29.337Z,10.77
2023-05-09T19:40:31.405Z,8.93
2023-05-09T19:45:33.537Z,11.55
2023-05-09T19:50:35.595Z,12.35
2023-05-09T19:55:37.647Z,9.55
2023-05-09T20:00:40.020Z,9.70
2023-05-09T20:05:42.220Z,12.13
2023-05-09T20:10:44.414Z,12.18
2023-05-09T20:15:47.838Z,12.30
2023-05-09T20:20:50.145Z,13.80
2023-05-09T20:25:52.458Z,14.00
2023-05-09T20:30:56.030Z,13.95
2023-05-09T20:35:58.308Z,16.15
2023-05-09T20:41:00.386Z,17.58
2023-05-09T20:46:02.576Z,18.33
2023-05-09T20:51:04.755Z,17.92
2023-05-09T20:56:06.871Z,19.90
2023-05-09T21:01:09.175Z,17.33
2023-05-09T21:06:11.348Z,18.38
2023-05-09T21:11:13.754Z,22.33
2023-05-09T21:16:16.084Z,15.50
2023-05-09T21:21:18.204Z,17.15
2023-05-09T21:26:21.385Z,17.60
2023-05-09T21:31:26.882Z,18.10
2023-05-09T21:36:29.131Z,22.38
2023-05-09T21:41:31.203Z,19.35
2023-05-09T21:46:34.204Z,20.70
2023-05-09T21:51:36.407Z,22.90
2023-05-09T21:56:38.610Z,26.23
2023-05-09T22:01:40.791Z,22.02
2023-05-09T22:06:43.531Z,23.50
2023-05-09T22:11:45.598Z,23.58
2023-05-09T22:16:47.738Z,24.55
2023-05-09T22:21:49.916Z,27.88
2023-05-09T22:26:51.951Z,25.00
2023-05-09T22:31:55.409Z,26.45
2023-05-09T22:36:57.633Z,26.77
2023-05-09T22:41:59.742Z,27.52
2023-05-09T22:47:02.127Z,30.77
2023-05-09T22:52:04.545Z,28.75
2023-05-09T22:57:06.656Z,30.60
2023-05-09T23:02:09.168Z,29.70
2023-05-09T23:07:11.712Z,31.65
2023-05-09T23:12:13.802Z,34.60
2023-05-09T23:17:16.148Z,32.47
2023-05-09T23:22:18.348Z,37.75
2023-05-09T23:27:20.426Z,42.00
2023-05-09T23:32:22.726Z,35.67
2023-05-09T23:37:24.999Z,41.58
2023-05-09T23:42:27.107Z,40.92
2023-05-09T23:47:29.276Z,36.97
2023-05-09T23:52:31.615Z,35.20
2023-05-09T23:57:33.726Z,43.13
